Time;durP1;ratioP1;P1;durP2;ratioP2;P2;SDS_P1;SDS_P2;PMS_P1;PMS_P2;Temp;Humidity;BMP_temperature;BMP_pressure;BME280_temperature;BME280_humidity;BME280_pressure;Samples;Min_cycle;Max_cycle;Signal;HPM_P1;HPM_P2
2022/10/03 00:01:49;;;;;;;21.85;12.68;;;;;;;14.03;82.02;98023.78;4892561;29;20185;-79
2022/10/03 00:04:48;;;;;;;20.85;12.30;;;;;;;14.01;81.87;98026.47;4914483;29;20050;-80
2022/10/03 00:07:29;;;;;;;19.80;12.50;;;;;;;13.99;82.00;98019.66;4899233;29;20265;-78
2022/10/03 00:10:04;;;;;;;23.77;13.48;;;;;;;14.00;82.46;98016.09;4949930;29;20031;-80
2022/10/03 00:12:41;;;;;;;19.15;11.93;;;;;;;13.90;82.44;98002.66;4940542;29;20036;-79
2022/10/03 00:15:17;;;;;;;19.75;12.43;;;;;;;14.03;82.41;98013.31;4930479;29;20127;-80
2022/10/03 00:17:57;;;;;;;18.23;11.95;;;;;;;14.05;82.59;97995.78;4929064;29;20047;-81
2022/10/03 00:20:52;;;;;;;24.40;13.88;;;;;;;14.02;82.56;98003.78;4896066;29;20087;-79
2022/10/03 00:23:50;;;;;;;26.85;14.18;;;;;;;13.95;82.45;97987.56;4927659;29;20482;-78
2022/10/03 00:27:22;;;;;;;23.83;13.20;;;;;;;13.96;82.53;97983.19;4925122;29;20438;-80
2022/10/03 00:30:09;;;;;;;19.80;12.43;;;;;;;14.01;82.81;97978.56;4818547;29;20069;-79
2022/10/03 00:32:45;;;;;;;25.95;14.75;;;;;;;14.05;82.97;97971.41;4846848;29;20298;-79
2022/10/03 00:35:42;;;;;;;24.27;14.18;;;;;;;14.05;83.01;97969.63;4890461;29;20055;-77
2022/10/03 00:38:21;;;;;;;28.38;14.95;;;;;;;14.00;83.05;97971.66;4927838;29;20051;-79
2022/10/03 00:41:17;;;;;;;29.17;16.23;;;;;;;14.07;83.14;97978.22;4911846;29;20106;-80
2022/10/03 00:44:26;;;;;;;24.77;14.98;;;;;;;14.07;83.22;97973.00;4931160;29;20051;-77
2022/10/03 00:47:47;;;;;;;23.92;15.43;;;;;;;14.09;83.54;97988.63;4919132;29;20039;-80
2022/10/03 00:50:27;;;;;;;26.35;16.45;;;;;;;14.08;83.61;97979.94;4858466;29;20080;-80
2022/10/03 00:53:09;;;;;;;26.60;16.13;;;;;;;14.09;83.72;97963.31;4932297;29;20047;-79
2022/10/03 00:56:14;;;;;;;24.55;15.52;;;;;;;14.11;83.72;97969.31;4915753;29;20058;-80
2022/10/03 00:59:01;;;;;;;28.40;16.90;;;;;;;14.13;83.82;97957.00;4836758;29;20428;-78
2022/10/03 01:01:27;;;;;;;30.15;16.92;;;;;;;14.20;83.97;97956.69;4894817;29;20098;-79
2022/10/03 01:04:31;;;;;;;28.13;16.55;;;;;;;14.23;84.02;97953.91;4932774;29;20044;-79
2022/10/03 01:07:25;;;;;;;27.92;16.13;;;;;;;14.22;83.71;97958.28;4890532;29;20058;-79
2022/10/03 01:10:21;;;;;;;27.08;16.67;;;;;;;14.15;83.93;97917.66;4914680;29;20047;-79
2022/10/03 01:13:08;;;;;;;29.85;16.38;;;;;;;14.28;84.04;97928.31;4932343;29;20103;-80
2022/10/03 01:16:11;;;;;;;26.20;16.67;;;;;;;14.30;84.07;97937.81;4932186;29;20043;-80
2022/10/03 01:19:12;;;;;;;29.05;16.63;;;;;;;14.34;84.29;97932.41;4932349;29;20156;-80
2022/10/03 01:21:56;;;;;;;26.52;14.95;;;;;;;14.36;83.96;97926.16;4845542;29;20120;-79
2022/10/03 01:24:31;;;;;;;36.53;17.88;;;;;;;14.36;84.46;97917.44;4895973;29;20055;-80
2022/10/03 01:27:00;;;;;;;27.95;16.67;;;;;;;14.27;84.20;97911.81;4914419;29;20047;-79
2022/10/03 01:32:42;;;;;;;24.90;14.40;;;;;;;14.29;84.72;97898.63;4931620;29;20526;-77
2022/10/03 01:35:35;;;;;;;28.92;14.90;;;;;;;14.37;84.36;97903.44;4914910;29;20047;-78
2022/10/03 01:38:32;;;;;;;25.40;14.55;;;;;;;14.37;84.42;97899.06;4914324;29;20043;-80
2022/10/03 01:41:37;;;;;;;22.33;14.32;;;;;;;14.36;84.67;97894.75;4914515;29;21461;-79
2022/10/03 01:44:15;;;;;;;27.70;13.65;;;;;;;14.28;84.74;97887.34;4891446;29;20044;-80
2022/10/03 01:46:50;;;;;;;25.70;13.88;;;;;;;14.35;84.92;97892.22;4930720;29;20054;-80
2022/10/03 01:49:29;;;;;;;24.88;14.57;;;;;;;14.33;84.90;97889.69;4931569;29;20043;-81
2022/10/03 01:52:24;;;;;;;24.25;14.15;;;;;;;14.32;84.91;97882.75;4908974;29;20047;-80
2022/10/03 01:55:08;;;;;;;26.52;15.25;;;;;;;14.33;84.81;97881.00;4895706;29;20048;-80
2022/10/03 01:57:41;;;;;;;25.02;14.68;;;;;;;14.28;85.11;97863.78;4932830;29;20036;-79
2022/10/03 02:00:14;;;;;;;33.25;15.48;;;;;;;14.40;85.22;97882.34;4934264;29;20039;-79
2022/10/03 02:02:59;;;;;;;23.75;14.35;;;;;;;14.27;85.06;97869.94;4917730;29;20450;-79
2022/10/03 02:05:47;;;;;;;23.17;13.07;;;;;;;14.40;85.13;97880.59;4881349;29;20035;-78
2022/10/03 02:08:16;;;;;;;24.85;13.25;;;;;;;14.38;85.34;97877.19;4913405;29;20044;-78
2022/10/03 02:10:58;;;;;;;22.60;14.13;;;;;;;14.30;85.03;97859.31;4929967;29;20050;-80
2022/10/03 02:13:44;;;;;;;24.02;13.73;;;;;;;14.29;85.33;97862.00;4941527;29;20063;-78
2022/10/03 02:16:40;;;;;;;33.10;15.82;;;;;;;14.41;85.70;97860.47;4916420;29;20075;-79
2022/10/03 02:19:28;;;;;;;23.30;14.55;;;;;;;14.40;85.62;97864.88;4913250;29;20044;-78
2022/10/03 02:21:57;;;;;;;23.17;13.95;;;;;;;14.41;85.63;97863.09;4929823;29;20803;-78
2022/10/03 02:24:35;;;;;;;22.30;14.02;;;;;;;14.35;85.79;97855.56;4909217;29;20054;-78
2022/10/03 02:27:29;;;;;;;21.63;13.13;;;;;;;14.42;85.93;97856.94;4912583;29;20044;-78
2022/10/03 02:30:04;;;;;;;21.52;12.80;;;;;;;14.43;85.84;97853.41;4929867;29;20450;-78
2022/10/03 02:32:58;;;;;;;23.52;14.70;;;;;;;14.46;86.22;97845.38;4930757;29;20079;-79
2022/10/03 02:35:52;;;;;;;17.58;12.02;;;;;;;14.44;85.93;97839.38;4931026;29;20049;-77
2022/10/03 02:38:30;;;;;;;20.67;12.73;;;;;;;14.46;85.82;97837.53;4907500;29;20047;-78
2022/10/03 02:41:20;;;;;;;20.33;12.63;;;;;;;14.49;85.84;97850.44;4935447;29;20095;-79
2022/10/03 02:44:05;;;;;;;19.70;12.45;;;;;;;14.50;85.98;97856.50;4936187;29;20048;-78
2022/10/03 02:46:45;;;;;;;22.00;13.23;;;;;;;14.53;86.26;97856.34;4913377;29;20317;-79
2022/10/03 02:49:33;;;;;;;19.73;12.82;;;;;;;14.52;86.09;97850.28;4912874;29;20452;-79
2022/10/03 02:52:14;;;;;;;21.52;12.93;;;;;;;14.52;86.15;97836.34;4912205;29;20058;-79
2022/10/03 02:55:09;;;;;;;20.52;12.63;;;;;;;14.45;86.25;97836.66;4913031;29;20054;-81
2022/10/03 02:57:49;;;;;;;26.98;14.32;;;;;;;14.52;86.32;97842.44;4922489;29;20039;-80
2022/10/03 03:00:36;;;;;;;21.13;13.00;;;;;;;14.55;86.48;97836.16;4935042;29;20492;-80
2022/10/03 03:03:19;;;;;;;20.80;14.32;;;;;;;14.57;86.62;97829.06;4929647;29;20118;-80
2022/10/03 03:06:28;;;;;;;26.42;15.35;;;;;;;14.53;86.87;97817.09;4936874;29;20227;-81
2022/10/03 03:08:57;;;;;;;26.20;15.13;;;;;;;14.61;86.48;97833.22;4913143;29;20048;-80
2022/10/03 03:11:58;;;;;;;22.05;13.73;;;;;;;14.56;86.67;97817.78;4912835;29;20044;-79
2022/10/03 03:14:50;;;;;;;29.40;16.15;;;;;;;14.56;86.61;97822.16;4930233;29;20047;-80
2022/10/03 03:17:34;;;;;;;28.58;17.17;;;;;;;14.60;86.66;97814.03;4930516;29;20039;-80
2022/10/03 03:20:18;;;;;;;26.10;15.55;;;;;;;14.62;86.75;97813.97;4934698;28;20063;-79
2022/10/03 03:23:23;;;;;;;28.00;16.80;;;;;;;14.64;86.92;97817.34;4912037;29;20081;-79
2022/10/03 03:26:11;;;;;;;27.83;17.23;;;;;;;14.65;86.93;97802.47;4888919;29;20102;-78
2022/10/03 03:29:12;;;;;;;24.80;15.23;;;;;;;14.66;86.90;97804.16;4912820;29;20063;-79
2022/10/03 03:32:04;;;;;;;27.57;15.83;;;;;;;14.66;86.80;97798.91;4875256;29;20057;-80
2022/10/03 03:35:12;;;;;;;25.95;17.65;;;;;;;14.71;86.89;97804.75;4893136;29;20506;-78
2022/10/03 03:37:45;;;;;;;24.27;15.57;;;;;;;14.70;86.99;97801.28;4881147;29;20503;-79
2022/10/03 03:40:37;;;;;;;27.90;17.70;;;;;;;14.71;86.75;97802.97;4930981;29;20043;-80
2022/10/03 03:43:40;;;;;;;26.13;16.05;;;;;;;14.75;86.81;97801.88;4905063;29;20055;-78
2022/10/03 03:46:09;;;;;;;27.00;17.23;;;;;;;14.79;86.96;97786.00;4930873;29;20135;-78
2022/10/03 03:49:07;;;;;;;33.60;21.20;;;;;;;14.82;87.03;97783.19;4936553;29;20067;-79
2022/10/03 03:51:46;;;;;;;26.13;16.48;;;;;;;14.86;86.92;97790.78;4935784;29;20063;-78
2022/10/03 03:54:37;;;;;;;27.40;17.65;;;;;;;14.88;86.80;97791.53;4950878;29;20099;-79
2022/10/03 03:57:27;;;;;;;26.92;16.58;;;;;;;14.90;86.87;97781.81;4898015;29;20052;-79
2022/10/03 04:00:31;;;;;;;25.25;16.75;;;;;;;14.87;86.82;97773.31;4929878;29;20039;-79
2022/10/03 04:03:33;;;;;;;27.13;17.60;;;;;;;14.98;86.96;97772.66;4933713;29;20047;-79
2022/10/03 04:06:33;;;;;;;26.45;17.23;;;;;;;15.00;87.02;97758.53;4897680;29;20035;-80
2022/10/03 04:09:05;;;;;;;25.35;16.70;;;;;;;15.03;86.92;97760.13;4900592;29;20051;-79
2022/10/03 04:12:09;;;;;;;23.52;15.88;;;;;;;15.04;86.69;97754.81;4930580;29;20040;-79
2022/10/03 04:14:48;;;;;;;22.35;16.67;;;;;;;15.06;86.94;97752.94;4931050;29;20044;-79
2022/10/03 04:20:54;;;;;;;23.58;16.83;;;;;;;15.08;86.77;97734.50;4954643;29;20071;-79
2022/10/03 04:23:27;;;;;;;;;;;;;;;15.11;86.90;97749.22;4956696;29;20054;-79
2022/10/03 04:26:11;;;;;;;24.90;16.65;;;;;;;15.13;86.98;97753.41;4940543;29;19930;-80
2022/10/03 04:29:20;;;;;;;23.48;17.15;;;;;;;15.18;86.80;97745.28;4958021;29;20087;-79
2022/10/03 04:32:22;;;;;;;28.90;20.77;;;;;;;15.19;86.80;97739.97;4949773;29;20060;-79
2022/10/03 04:35:09;;;;;;;30.83;21.38;;;;;;;15.11;86.89;97696.84;4938007;29;20138;-77
2022/10/03 04:37:52;;;;;;;29.98;21.83;;;;;;;15.31;86.79;97733.13;4945812;29;20044;-79
2022/10/03 04:40:44;;;;;;;26.55;19.60;;;;;;;15.36;86.64;97717.94;4954069;29;20102;-79
2022/10/03 04:43:28;;;;;;;21.90;16.77;;;;;;;15.40;86.67;97718.63;4951444;29;20039;-78
2022/10/03 04:46:28;;;;;;;22.85;16.33;;;;;;;15.43;86.78;97712.34;4955419;29;20055;-79
2022/10/03 04:49:03;;;;;;;19.92;14.20;;;;;;;15.41;86.83;97716.81;4933209;29;20036;-79
2022/10/03 04:51:53;;;;;;;22.25;15.23;;;;;;;15.55;86.89;97716.81;4932385;29;20636;-81
2022/10/03 04:54:43;;;;;;;17.88;12.93;;;;;;;15.53;86.70;97689.88;4954691;29;20074;-79
2022/10/03 04:57:22;;;;;;;17.08;12.13;;;;;;;15.68;86.59;97703.75;4949371;29;20069;-77
2022/10/03 05:00:07;;;;;;;14.75;10.85;;;;;;;15.69;86.58;97681.84;4950547;29;20111;-80
2022/10/03 05:02:45;;;;;;;13.80;11.52;;;;;;;15.79;86.47;97693.44;4940250;29;20051;-79
2022/10/03 05:05:18;;;;;;;20.35;10.85;;;;;;;15.80;86.43;97710.88;4935578;29;20052;-79
2022/10/03 05:08:13;;;;;;;14.85;10.77;;;;;;;15.81;86.13;97712.56;4901610;29;20479;-82
2022/10/03 05:10:49;;;;;;;13.88;9.60;;;;;;;15.79;86.05;97703.94;4902199;29;20054;-80
2022/10/03 05:13:19;;;;;;;13.80;10.10;;;;;;;15.80;86.14;97713.50;4918716;29;20138;-79
2022/10/03 05:15:54;;;;;;;14.02;10.07;;;;;;;15.80;86.08;97700.38;4910565;29;20048;-79
2022/10/03 05:18:48;;;;;;;13.48;10.38;;;;;;;15.73;85.91;97674.66;4917711;29;20618;-79
2022/10/03 05:21:44;;;;;;;16.98;9.18;;;;;;;15.81;85.49;97681.09;4878757;29;20056;-80
2022/10/03 05:24:25;;;;;;;15.80;10.50;;;;;;;15.87;86.01;97658.91;4898990;29;20571;-79
2022/10/03 05:27:39;;;;;;;14.15;10.00;;;;;;;15.82;85.61;97653.94;4906061;29;20055;-80
2022/10/03 05:30:18;;;;;;;13.80;9.40;;;;;;;15.80;85.94;97633.97;4914769;29;20036;-79
2022/10/03 05:32:58;;;;;;;13.63;8.73;;;;;;;15.92;85.09;97662.06;4882443;29;20072;-79
2022/10/03 05:35:58;;;;;;;14.70;9.27;;;;;;;15.94;85.11;97654.94;4882590;29;20044;-78
2022/10/03 05:39:00;;;;;;;11.55;8.00;;;;;;;15.91;84.95;97639.41;4897874;29;20096;-79
2022/10/03 05:41:32;;;;;;;10.23;7.75;;;;;;;15.70;84.94;97599.66;4866633;29;20051;-79
2022/10/03 05:44:16;;;;;;;;;;;;;;;15.89;84.86;97629.97;4893911;29;20036;-80
2022/10/03 05:47:43;;;;;;;14.02;8.23;;;;;;;15.85;84.92;97629.28;4894300;29;19953;-81
2022/10/03 05:50:28;;;;;;;14.38;8.02;;;;;;;15.90;84.72;97629.84;4895426;29;20076;-81
2022/10/03 05:52:55;;;;;;;10.60;8.30;;;;;;;15.91;84.77;97647.28;4905115;29;20079;-80
2022/10/03 05:55:43;;;;;;;11.30;7.82;;;;;;;15.94;84.69;97633.09;4896163;29;20044;-79
2022/10/03 05:59:03;;;;;;;11.48;7.85;;;;;;;15.67;84.54;97589.34;4911581;29;20040;-80
2022/10/03 06:02:05;;;;;;;12.27;7.68;;;;;;;15.93;84.65;97645.41;4862772;29;20063;-80
2022/10/03 06:08:40;;;;;;;12.63;8.02;;;;;;;15.90;84.20;97637.72;4857428;29;20051;-79
2022/10/03 06:11:12;;;;;;;14.68;9.63;;;;;;;15.91;84.32;97634.16;4879047;29;20044;-79
2022/10/03 06:14:04;;;;;;;12.63;7.45;;;;;;;15.84;83.63;97643.31;4894400;29;20127;-79
2022/10/03 06:17:29;;;;;;;9.82;6.82;;;;;;;15.46;83.85;97575.88;4892731;29;20118;-80
2022/10/03 06:20:23;;;;;;;10.55;6.50;;;;;;;15.72;83.84;97620.53;4883222;29;20096;-81
2022/10/03 06:23:24;;;;;;;8.63;6.10;;;;;;;15.78;83.71;97627.97;4930870;29;20059;-79
2022/10/03 06:26:09;;;;;;;11.57;6.38;;;;;;;15.76;83.71;97622.84;4910756;29;20040;-81
2022/10/03 06:29:05;;;;;;;11.45;6.22;;;;;;;15.76;83.51;97646.44;4933639;29;20480;-80
2022/10/03 06:31:56;;;;;;;14.20;6.03;;;;;;;15.74;83.25;97611.63;4914743;29;20039;-79
2022/10/03 06:34:56;;;;;;;10.35;5.78;;;;;;;15.66;83.03;97627.03;4919632;29;20048;-80
2022/10/03 06:37:58;;;;;;;9.32;5.38;;;;;;;15.51;83.11;97592.16;4892658;29;20036;-80
2022/10/03 06:40:38;;;;;;;13.57;5.88;;;;;;;15.68;82.78;97617.25;4931508;29;20138;-82
2022/10/03 06:43:30;;;;;;;9.73;5.65;;;;;;;15.43;82.96;97597.03;4900753;29;20472;-80
2022/10/03 06:45:57;;;;;;;9.70;5.93;;;;;;;15.69;82.72;97615.50;4935088;29;20054;-80
2022/10/03 06:48:43;;;;;;;9.80;5.35;;;;;;;15.66;82.84;97624.41;4930435;29;20130;-81
2022/10/03 06:51:47;;;;;;;13.60;5.93;;;;;;;15.63;82.36;97625.41;4927852;29;20067;-80
2022/10/03 06:54:32;;;;;;;11.98;5.63;;;;;;;15.62;82.36;97630.78;4928856;29;20433;-81
2022/10/03 06:57:23;;;;;;;10.35;6.40;;;;;;;15.39;81.83;97640.09;4909340;29;20106;-82
2022/10/03 07:00:21;;;;;;;6.63;5.35;;;;;;;15.34;82.15;97624.66;4920648;29;20031;-79
2022/10/03 07:03:09;;;;;;;12.10;5.90;;;;;;;15.17;82.14;97644.03;4920458;29;20065;-80
2022/10/03 07:06:14;;;;;;;11.45;6.97;;;;;;;15.09;82.46;97628.81;4911052;29;20043;-79
2022/10/03 07:08:57;;;;;;;14.65;7.30;;;;;;;15.10;82.64;97648.81;4929223;29;20506;-81
2022/10/03 07:11:41;;;;;;;10.05;6.38;;;;;;;15.08;82.86;97623.69;4932267;29;20047;-79
2022/10/03 07:14:38;;;;;;;9.10;6.35;;;;;;;15.08;82.59;97647.25;4928592;29;20105;-80
2022/10/03 07:17:22;;;;;;;15.15;5.78;;;;;;;15.04;82.67;97639.56;4930199;29;20032;-79
2022/10/03 07:20:10;;;;;;;11.13;7.05;;;;;;;15.03;82.92;97618.69;4915079;29;20047;-78
2022/10/03 07:22:59;;;;;;;13.10;7.60;;;;;;;15.10;82.70;97642.75;4921340;29;20035;-79
2022/10/03 07:25:34;;;;;;;10.80;5.40;;;;;;;14.72;82.65;97563.84;4934562;29;20055;-80
2022/10/03 07:28:43;;;;;;;11.88;6.15;;;;;;;15.13;82.84;97643.41;4951016;29;21177;-80
2022/10/03 07:31:31;;;;;;;9.70;5.50;;;;;;;15.01;82.45;97617.94;4928378;29;20051;-80
2022/10/03 07:34:12;;;;;;;10.50;5.63;;;;;;;15.10;82.71;97637.53;4886400;29;20043;-80
2022/10/03 07:40:09;;;;;;;9.18;5.53;;;;;;;14.93;82.61;97599.28;4933608;29;20468;-81
2022/10/03 07:43:17;;;;;;;8.00;5.40;;;;;;;15.01;82.25;97634.53;4917882;29;20044;-80
2022/10/03 07:46:21;;;;;;;9.50;5.45;;;;;;;14.95;82.48;97639.31;4878809;29;20058;-79
2022/10/03 07:49:39;;;;;;;10.15;5.80;;;;;;;14.95;82.66;97645.38;4901677;29;20139;-79
2022/10/03 07:52:56;;;;;;;9.05;5.65;;;;;;;14.80;82.50;97638.44;4915913;29;20119;-80
2022/10/03 07:56:39;;;;;;;9.38;5.88;;;;;;;14.70;82.76;97625.91;4900890;29;20079;-77
2022/10/03 07:59:43;;;;;;;9.60;6.10;;;;;;;14.67;82.80;97662.72;4891365;29;20043;-79
2022/10/03 08:02:49;;;;;;;11.52;5.75;;;;;;;14.65;83.05;97661.97;4916182;29;20055;-80
2022/10/03 08:05:55;;;;;;;15.70;7.65;;;;;;;14.61;83.20;97647.38;4932394;29;20050;-79
2022/10/03 08:08:56;;;;;;;13.02;6.68;;;;;;;14.72;83.52;97641.53;4881156;29;20111;-81
2022/10/03 08:12:04;;;;;;;8.98;6.32;;;;;;;14.91;83.56;97636.88;4915853;29;20047;-80
2022/10/03 08:15:07;;;;;;;9.35;4.97;;;;;;;15.00;83.24;97652.97;4912650;29;20075;-81
2022/10/03 08:17:51;;;;;;;8.57;4.40;;;;;;;15.04;83.11;97650.06;4930875;29;20063;-79
2022/10/03 08:20:40;;;;;;;10.02;4.65;;;;;;;15.02;82.86;97665.00;4928914;29;20059;-80
2022/10/03 08:23:37;;;;;;;7.03;4.47;;;;;;;15.02;83.15;97648.44;4932316;29;20183;-79
2022/10/03 08:26:27;;;;;;;10.98;5.25;;;;;;;15.03;82.84;97647.50;4898096;29;20404;-80
2022/10/03 08:29:12;;;;;;;6.38;4.40;;;;;;;15.09;83.01;97638.47;4907481;29;20044;-83
2022/10/03 08:31:59;;;;;;;7.03;5.00;;;;;;;15.12;82.88;97649.56;4932554;29;20051;-80
2022/10/03 08:34:56;;;;;;;4.60;3.92;;;;;;;14.99;82.56;97631.16;4896402;29;20509;-81
2022/10/03 08:37:28;;;;;;;8.60;4.20;;;;;;;15.12;82.77;97662.66;4915132;29;20537;-80
2022/10/03 08:39:59;;;;;;;5.88;4.55;;;;;;;15.09;82.70;97647.16;4929108;29;20043;-80
2022/10/03 08:42:28;;;;;;;;;;;;;;;15.08;82.43;97663.78;4914241;29;20046;-79
2022/10/03 08:45:16;;;;;;;7.53;4.07;;;;;;;15.11;82.98;97647.06;4914727;29;19918;-79
2022/10/03 08:47:45;;;;;;;7.18;3.67;;;;;;;15.08;82.45;97660.34;4913540;29;20044;-79
2022/10/03 08:50:42;;;;;;;6.82;3.50;;;;;;;15.08;82.44;97666.41;4932983;29;20036;-80
2022/10/03 08:53:47;;;;;;;8.70;4.63;;;;;;;15.04;82.50;97672.75;4915228;29;20086;-79
2022/10/03 08:56:26;;;;;;;6.40;4.00;;;;;;;14.99;82.47;97674.84;4895726;29;20044;-79
2022/10/03 08:59:37;;;;;;;9.95;4.50;;;;;;;14.80;82.30;97654.16;4927844;29;20048;-83
2022/10/03 09:02:24;;;;;;;12.10;4.65;;;;;;;14.50;81.78;97660.25;4926795;29;20046;-79
2022/10/03 09:05:05;;;;;;;37.08;6.75;;;;;;;14.03;82.14;97654.25;4906439;29;20051;-81
2022/10/03 09:07:59;;;;;;;34.38;9.25;;;;;;;13.93;83.06;97667.00;4914622;29;20543;-82
2022/10/03 09:10:50;;;;;;;169.82;15.48;;;;;;;13.94;83.47;97673.91;4910989;29;20097;-80
2022/10/03 09:13:41;;;;;;;108.80;12.80;;;;;;;13.99;84.26;97679.72;4922019;29;20035;-79
2022/10/03 09:16:40;;;;;;;19.15;7.28;;;;;;;13.96;84.36;97679.91;4896574;29;20047;-79
2022/10/03 09:19:09;;;;;;;17.02;8.77;;;;;;;14.07;84.99;97680.13;4914438;29;20040;-80
2022/10/03 09:22:09;;;;;;;17.40;9.55;;;;;;;14.21;85.12;97674.09;4914229;29;20074;-81
2022/10/03 09:25:20;;;;;;;10.95;6.25;;;;;;;14.33;85.32;97677.78;4899231;29;20035;-79
2022/10/03 09:28:19;;;;;;;11.38;6.85;;;;;;;14.29;85.42;97690.22;4924554;29;20115;-78
2022/10/03 09:30:52;;;;;;;14.65;8.70;;;;;;;14.34;85.82;97676.84;4910028;29;20044;-80
2022/10/03 09:33:39;;;;;;;12.82;8.68;;;;;;;14.42;86.04;97682.50;4933686;29;20047;-79
2022/10/03 09:36:33;;;;;;;12.95;7.82;;;;;;;14.42;86.22;97679.88;4894244;29;20043;-78
2022/10/03 09:39:28;;;;;;;11.40;6.78;;;;;;;14.41;85.85;97688.66;4895139;29;20103;-79
2022/10/03 09:42:28;;;;;;;9.68;5.40;;;;;;;14.27;85.62;97686.84;4896946;29;20051;-80
2022/10/03 09:45:12;;;;;;;6.88;4.93;;;;;;;14.30;86.01;97693.66;4894502;29;20139;-79
2022/10/03 09:48:08;;;;;;;9.75;5.03;;;;;;;14.12;86.16;97667.63;4913957;29;20043;-79
2022/10/03 09:50:45;;;;;;;5.93;3.83;;;;;;;14.28;86.23;97698.13;4897019;29;20057;-80
2022/10/03 09:53:31;;;;;;;7.90;4.43;;;;;;;14.38;86.62;97704.53;4913123;29;20051;-79
2022/10/03 09:56:18;;;;;;;6.82;4.82;;;;;;;14.51;86.54;97673.25;4930697;29;20046;-82
2022/10/03 09:59:05;;;;;;;10.43;6.70;;;;;;;14.93;86.65;97696.16;4898156;29;20459;-81
2022/10/03 10:01:50;;;;;;;7.78;4.88;;;;;;;15.02;86.84;97683.34;4912942;29;20052;-80
2022/10/03 10:04:34;;;;;;;7.15;4.90;;;;;;;15.21;87.23;97692.69;4898151;29;20569;-81
2022/10/03 10:07:12;;;;;;;6.13;4.32;;;;;;;15.36;87.37;97696.97;4930283;29;20108;-80
2022/10/03 10:09:47;;;;;;;4.97;3.17;;;;;;;15.14;86.60;97701.84;4882865;29;21498;-81
2022/10/03 10:12:41;;;;;;;7.63;3.85;;;;;;;14.97;86.85;97714.19;4913732;29;20731;-80
2022/10/03 10:15:34;;;;;;;2.42;2.10;;;;;;;14.80;86.07;97728.28;4913539;29;20090;-78
2022/10/03 10:18:34;;;;;;;3.45;1.95;;;;;;;14.44;86.13;97747.81;4913047;29;20719;-80
2022/10/03 10:21:28;;;;;;;1.88;1.20;;;;;;;13.97;85.92;97758.25;4881260;29;20059;-80
2022/10/03 10:24:22;;;;;;;5.43;1.50;;;;;;;13.73;86.38;97760.44;4912741;29;20051;-82
2022/10/03 10:27:03;;;;;;;0.90;0.85;;;;;;;13.40;86.18;97775.22;4931556;29;20515;-81
2022/10/03 10:29:30;;;;;;;2.47;1.13;;;;;;;13.28;86.34;97785.44;4913049;29;20070;-80
2022/10/03 10:32:14;;;;;;;1.65;1.30;;;;;;;13.20;86.87;97773.63;4929206;29;20046;-78
2022/10/03 10:35:16;;;;;;;2.00;1.55;;;;;;;13.19;87.33;97786.75;4912835;29;20048;-79
2022/10/03 10:37:54;;;;;;;2.97;2.00;;;;;;;13.27;87.27;97800.25;4930004;29;20419;-79
2022/10/03 10:40:46;;;;;;;1.92;1.50;;;;;;;13.13;87.27;97776.63;4891553;29;20137;-78
2022/10/03 10:43:30;;;;;;;2.88;1.52;;;;;;;13.46;87.18;97807.19;4928391;29;20043;-78
2022/10/03 10:46:36;;;;;;;2.70;1.60;;;;;;;13.61;87.51;97801.13;4913780;29;20052;-82
2022/10/03 10:49:20;;;;;;;2.67;1.30;;;;;;;13.66;87.13;97825.28;4912573;29;20807;-80
2022/10/03 10:52:11;;;;;;;1.30;0.90;;;;;;;13.57;86.94;97827.53;4896641;29;20047;-79
2022/10/03 10:54:50;;;;;;;1.50;1.30;;;;;;;13.38;86.79;97824.06;4896838;29;20111;-79
2022/10/03 10:57:22;;;;;;;2.42;1.13;;;;;;;13.21;86.57;97855.44;4936533;29;20055;-78
2022/10/03 11:00:04;;;;;;;1.55;1.45;;;;;;;13.10;86.79;97855.97;4939182;29;20107;-78
2022/10/03 11:02:52;;;;;;;2.75;1.20;;;;;;;12.92;86.53;97879.44;4934432;29;20054;-78
2022/10/03 11:05:28;;;;;;;1.38;1.25;;;;;;;12.81;86.68;97869.53;4953333;29;20074;-78
2022/10/03 11:08:33;;;;;;;2.55;1.45;;;;;;;12.70;86.85;97865.75;4916767;29;20051;-79
2022/10/03 11:11:36;;;;;;;1.23;1.13;;;;;;;12.62;86.98;97895.69;4941468;29;20055;-80
2022/10/03 11:14:34;;;;;;;3.08;1.50;;;;;;;12.52;86.69;97907.44;4894137;29;20047;-78
2022/10/03 11:17:22;;;;;;;1.50;1.40;;;;;;;12.33;86.48;97903.09;4912829;29;20075;-78
2022/10/03 11:20:17;;;;;;;1.80;1.50;;;;;;;12.21;86.38;97934.97;4912638;29;20047;-79
2022/10/03 11:23:11;;;;;;;1.48;1.10;;;;;;;12.04;86.30;97943.53;4929860;29;20521;-79
2022/10/03 11:25:50;;;;;;;3.42;1.20;;;;;;;11.92;85.80;97923.22;4928737;29;20758;-79
2022/10/03 11:28:37;;;;;;;1.85;0.80;;;;;;;11.81;85.91;97926.25;4911687;29;20082;-78
2022/10/03 11:31:43;;;;;;;1.08;0.90;;;;;;;11.74;85.74;97917.88;4926699;29;20123;-80
2022/10/03 11:34:25;;;;;;;2.55;0.95;;;;;;;11.88;86.30;97925.94;4909300;29;20139;-76
2022/10/03 11:37:14;;;;;;;1.98;1.60;;;;;;;11.96;86.09;97941.25;4928357;29;20051;-76
2022/10/03 11:39:47;;;;;;;0.70;0.70;;;;;;;12.04;86.11;97933.09;4928897;29;20051;-78
2022/10/03 11:42:38;;;;;;;0.60;0.60;;;;;;;12.08;85.59;97949.44;4912124;29;20376;-76
2022/10/03 11:45:22;;;;;;;0.75;0.73;;;;;;;12.07;85.41;97973.81;4929495;29;20146;-78
2022/10/03 11:48:06;;;;;;;0.80;0.80;;;;;;;12.07;85.17;97968.59;4929611;29;20128;-79
2022/10/03 11:50:44;;;;;;;2.38;0.60;;;;;;;12.15;85.25;97963.91;4894966;29;20047;-80
2022/10/03 11:53:34;;;;;;;1.73;1.08;;;;;;;12.22;85.09;97969.69;4911927;29;20511;-77
2022/10/03 11:56:29;;;;;;;1.38;0.50;;;;;;;12.07;84.29;97986.84;4930133;29;20520;-78
2022/10/03 11:59:21;;;;;;;0.40;0.40;;;;;;;11.86;83.96;98003.34;4911867;29;20143;-79
2022/10/03 12:02:08;;;;;;;0.45;0.40;;;;;;;11.68;83.49;98004.97;4928775;29;20075;-78
2022/10/03 12:04:33;;;;;;;0.35;0.35;;;;;;;11.54;83.24;98057.63;4928488;29;20039;-80
2022/10/03 12:10:41;;;;;;;0.25;0.25;;;;;;;11.25;82.31;98002.38;4928584;29;20047;-78
2022/10/03 12:13:22;;;;;;;2.90;0.73;;;;;;;11.15;82.07;98042.69;4912650;29;20039;-78
2022/10/03 12:15:53;;;;;;;0.30;0.30;;;;;;;11.11;82.10;98062.81;4930403;29;20047;-78
2022/10/03 12:18:33;;;;;;;1.07;0.30;;;;;;;11.15;82.38;98064.34;4913742;29;20427;-78
2022/10/03 12:21:05;;;;;;;1.17;0.40;;;;;;;11.07;82.05;98035.19;4930660;29;20503;-78
2022/10/03 12:23:58;;;;;;;0.40;0.40;;;;;;;10.98;81.67;98067.63;4912121;29;20048;-78
2022/10/03 12:26:36;;;;;;;0.40;0.40;;;;;;;11.00;82.20;98076.22;4928149;29;20416;-79
2022/10/03 12:29:04;;;;;;;0.43;0.30;;;;;;;11.11;82.54;98062.81;4911947;29;20541;-80
2022/10/03 12:31:40;;;;;;;0.30;0.30;;;;;;;11.17;81.44;98077.31;4928757;29;20047;-80
2022/10/03 12:34:36;;;;;;;0.43;0.43;;;;;;;11.08;80.98;98098.50;4909544;29;20043;-79
2022/10/03 12:37:21;;;;;;;0.90;0.50;;;;;;;11.10;81.61;98089.75;4930177;29;20058;-78
2022/10/03 12:40:22;;;;;;;1.40;0.20;;;;;;;10.92;80.16;98101.69;4934421;29;20083;-78
2022/10/03 12:43:21;;;;;;;0.30;0.30;;;;;;;10.83;80.06;98120.22;4889429;29;20051;-79
2022/10/03 12:46:02;;;;;;;0.55;0.30;;;;;;;10.70;80.29;98117.25;4915254;29;20047;-80
2022/10/03 12:48:54;;;;;;;0.70;0.30;;;;;;;10.62;79.98;98132.28;4900579;29;20053;-79
2022/10/03 12:51:30;;;;;;;0.20;0.20;;;;;;;10.61;79.83;98151.38;4898084;29;20079;-79
2022/10/03 12:53:59;;;;;;;3.50;0.50;;;;;;;10.55;80.23;98140.28;4913297;29;20032;-77
2022/10/03 12:57:02;;;;;;;0.35;0.30;;;;;;;10.65;80.20;98156.41;4916440;29;20134;-78
2022/10/03 12:59:41;;;;;;;0.40;0.40;;;;;;;10.58;79.63;98172.28;4918212;29;20075;-78
2022/10/03 13:02:23;;;;;;;1.45;0.32;;;;;;;10.49;79.27;98169.09;4933371;29;20495;-78
2022/10/03 13:05:17;;;;;;;2.47;0.40;;;;;;;10.51;79.68;98180.28;4901077;29;20078;-77
2022/10/03 13:07:51;;;;;;;2.20;0.70;;;;;;;10.53;79.62;98180.25;4903807;29;20428;-78
2022/10/03 13:10:36;;;;;;;0.63;0.40;;;;;;;10.55;79.45;98189.69;4893178;29;20078;-79
2022/10/03 13:13:20;;;;;;;0.40;0.22;;;;;;;10.50;79.11;98203.78;4929310;29;20047;-78
2022/10/03 13:16:12;;;;;;;0.20;0.20;;;;;;;10.36;78.54;98202.47;4931221;29;20050;-76
2022/10/03 13:19:00;;;;;;;1.48;0.40;;;;;;;10.30;78.30;98178.41;4936556;29;20040;-78
2022/10/03 13:21:33;;;;;;;0.40;0.30;;;;;;;10.37;78.52;98211.09;4919144;29;20056;-79
2022/10/03 13:23:59;;;;;;;4.00;0.40;;;;;;;10.38;78.58;98200.66;4930844;29;20050;-78